sensor_id;sensor_type;location;lat;lon;timestamp;P1;durP1;ratioP1;P2;durP2;ratioP2
31770;SDS011;18343;50.152;8.182;2022-07-23T00:00:49;10.85;;;7.05;;
31770;SDS011;18343;50.152;8.182;2022-07-23T00:03:37;12.85;;;7.18;;
31770;SDS011;18343;50.152;8.182;2022-07-23T00:06:23;7.63;;;6.07;;
31770;SDS011;18343;50.152;8.182;2022-07-23T00:09:09;12.55;;;6.65;;
31770;SDS011;18343;50.152;8.182;2022-07-23T00:11:54;8.05;;;6.60;;
31770;SDS011;18343;50.152;8.182;2022-07-23T00:14:40;9.80;;;6.75;;
31770;SDS011;18343;50.152;8.182;2022-07-23T00:17:25;10.82;;;6.63;;
31770;SDS011;18343;50.152;8.182;2022-07-23T00:20:13;8.32;;;6.10;;
31770;SDS011;18343;50.152;8.182;2022-07-23T00:22:59;10.30;;;6.90;;
31770;SDS011;18343;50.152;8.182;2022-07-23T00:25:44;8.32;;;6.72;;
31770;SDS011;18343;50.152;8.182;2022-07-23T00:28:30;9.95;;;7.05;;
31770;SDS011;18343;50.152;8.182;2022-07-23T00:31:16;7.90;;;6.03;;
31770;SDS011;18343;50.152;8.182;2022-07-23T00:34:02;9.70;;;7.00;;
31770;SDS011;18343;50.152;8.182;2022-07-23T00:36:49;8.25;;;6.35;;
31770;SDS011;18343;50.152;8.182;2022-07-23T00:39:37;7.07;;;6.10;;
31770;SDS011;18343;50.152;8.182;2022-07-23T00:42:22;10.30;;;6.53;;
31770;SDS011;18343;50.152;8.182;2022-07-23T00:45:08;8.02;;;6.45;;
31770;SDS011;18343;50.152;8.182;2022-07-23T00:47:54;7.60;;;6.60;;
31770;SDS011;18343;50.152;8.182;2022-07-23T00:50:40;8.50;;;6.28;;
31770;SDS011;18343;50.152;8.182;2022-07-23T00:53:29;9.23;;;6.78;;
31770;SDS011;18343;50.152;8.182;2022-07-23T00:56:15;7.35;;;6.03;;
31770;SDS011;18343;50.152;8.182;2022-07-23T00:59:01;9.10;;;6.88;;
31770;SDS011;18343;50.152;8.182;2022-07-23T01:01:47;10.30;;;6.55;;
31770;SDS011;18343;50.152;8.182;2022-07-23T01:04:33;8.50;;;6.60;;
31770;SDS011;18343;50.152;8.182;2022-07-23T01:07:19;10.25;;;6.22;;
31770;SDS011;18343;50.152;8.182;2022-07-23T01:10:08;8.77;;;6.43;;
31770;SDS011;18343;50.152;8.182;2022-07-23T01:13:08;8.38;;;6.45;;
31770;SDS011;18343;50.152;8.182;2022-07-23T01:15:55;6.95;;;6.25;;
31770;SDS011;18343;50.152;8.182;2022-07-23T01:18:41;8.73;;;7.13;;
31770;SDS011;18343;50.152;8.182;2022-07-23T01:21:26;9.23;;;6.38;;
31770;SDS011;18343;50.152;8.182;2022-07-23T01:24:14;7.82;;;7.03;;
31770;SDS011;18343;50.152;8.182;2022-07-23T01:27:02;6.95;;;5.93;;
31770;SDS011;18343;50.152;8.182;2022-07-23T01:29:49;8.35;;;6.30;;
31770;SDS011;18343;50.152;8.182;2022-07-23T01:32:34;8.45;;;7.10;;
31770;SDS011;18343;50.152;8.182;2022-07-23T01:35:20;7.75;;;6.90;;
31770;SDS011;18343;50.152;8.182;2022-07-23T01:38:06;7.72;;;6.82;;
31770;SDS011;18343;50.152;8.182;2022-07-23T01:40:53;10.07;;;7.03;;
31770;SDS011;18343;50.152;8.182;2022-07-23T01:43:39;12.73;;;7.10;;
31770;SDS011;18343;50.152;8.182;2022-07-23T01:46:25;10.70;;;7.10;;
31770;SDS011;18343;50.152;8.182;2022-07-23T01:49:11;9.27;;;7.25;;
31770;SDS011;18343;50.152;8.182;2022-07-23T01:51:57;9.93;;;7.38;;
31770;SDS011;18343;50.152;8.182;2022-07-23T01:54:45;7.82;;;6.40;;
31770;SDS011;18343;50.152;8.182;2022-07-23T01:57:33;9.15;;;7.35;;
31770;SDS011;18343;50.152;8.182;2022-07-23T02:00:19;10.38;;;6.93;;
31770;SDS011;18343;50.152;8.182;2022-07-23T02:03:05;8.02;;;7.22;;
31770;SDS011;18343;50.152;8.182;2022-07-23T02:05:51;9.48;;;7.32;;
31770;SDS011;18343;50.152;8.182;2022-07-23T02:08:37;8.07;;;7.15;;
31770;SDS011;18343;50.152;8.182;2022-07-23T02:11:22;11.48;;;7.68;;
31770;SDS011;18343;50.152;8.182;2022-07-23T02:14:09;12.57;;;7.80;;
31770;SDS011;18343;50.152;8.182;2022-07-23T02:16:55;11.93;;;7.18;;
31770;SDS011;18343;50.152;8.182;2022-07-23T02:19:41;10.98;;;7.28;;
31770;SDS011;18343;50.152;8.182;2022-07-23T02:22:26;8.82;;;7.45;;
31770;SDS011;18343;50.152;8.182;2022-07-23T02:25:12;12.60;;;7.80;;
31770;SDS011;18343;50.152;8.182;2022-07-23T02:27:58;9.77;;;7.80;;
31770;SDS011;18343;50.152;8.182;2022-07-23T02:30:45;11.40;;;8.13;;
31770;SDS011;18343;50.152;8.182;2022-07-23T02:33:31;8.98;;;7.82;;
31770;SDS011;18343;50.152;8.182;2022-07-23T02:36:17;9.35;;;7.97;;
31770;SDS011;18343;50.152;8.182;2022-07-23T02:39:03;10.15;;;7.85;;
31770;SDS011;18343;50.152;8.182;2022-07-23T02:41:49;11.98;;;7.93;;
31770;SDS011;18343;50.152;8.182;2022-07-23T02:44:34;10.63;;;8.02;;
31770;SDS011;18343;50.152;8.182;2022-07-23T02:47:22;11.25;;;8.43;;
31770;SDS011;18343;50.152;8.182;2022-07-23T02:50:08;9.88;;;8.02;;
31770;SDS011;18343;50.152;8.182;2022-07-23T02:52:55;11.13;;;8.32;;
31770;SDS011;18343;50.152;8.182;2022-07-23T02:55:41;9.63;;;7.95;;
31770;SDS011;18343;50.152;8.182;2022-07-23T02:58:27;10.30;;;8.00;;
31770;SDS011;18343;50.152;8.182;2022-07-23T03:01:13;12.93;;;8.02;;
31770;SDS011;18343;50.152;8.182;2022-07-23T03:04:00;12.40;;;8.82;;
31770;SDS011;18343;50.152;8.182;2022-07-23T03:06:45;14.38;;;7.50;;
31770;SDS011;18343;50.152;8.182;2022-07-23T03:09:31;9.80;;;7.90;;
31770;SDS011;18343;50.152;8.182;2022-07-23T03:12:17;10.80;;;8.13;;
31770;SDS011;18343;50.152;8.182;2022-07-23T03:15:03;9.85;;;7.50;;
31770;SDS011;18343;50.152;8.182;2022-07-23T03:17:50;8.40;;;7.53;;
31770;SDS011;18343;50.152;8.182;2022-07-23T03:20:37;10.27;;;8.23;;
31770;SDS011;18343;50.152;8.182;2022-07-23T03:23:23;10.20;;;7.85;;
31770;SDS011;18343;50.152;8.182;2022-07-23T03:26:08;11.05;;;8.45;;
31770;SDS011;18343;50.152;8.182;2022-07-23T03:28:54;8.77;;;7.88;;
31770;SDS011;18343;50.152;8.182;2022-07-23T03:31:39;10.60;;;7.63;;
31770;SDS011;18343;50.152;8.182;2022-07-23T03:34:25;8.90;;;7.47;;
31770;SDS011;18343;50.152;8.182;2022-07-23T03:37:12;8.95;;;7.93;;
31770;SDS011;18343;50.152;8.182;2022-07-23T03:39:58;12.15;;;7.82;;
31770;SDS011;18343;50.152;8.182;2022-07-23T03:42:43;11.25;;;7.85;;
31770;SDS011;18343;50.152;8.182;2022-07-23T03:45:29;14.13;;;7.97;;
31770;SDS011;18343;50.152;8.182;2022-07-23T03:48:15;9.15;;;7.85;;
31770;SDS011;18343;50.152;8.182;2022-07-23T03:51:01;11.32;;;8.90;;
31770;SDS011;18343;50.152;8.182;2022-07-23T03:53:48;13.40;;;9.32;;
31770;SDS011;18343;50.152;8.182;2022-07-23T03:56:34;13.80;;;8.80;;
31770;SDS011;18343;50.152;8.182;2022-07-23T03:59:20;11.27;;;8.98;;
31770;SDS011;18343;50.152;8.182;2022-07-23T04:02:05;9.95;;;8.80;;
31770;SDS011;18343;50.152;8.182;2022-07-23T04:04:51;12.02;;;9.57;;
31770;SDS011;18343;50.152;8.182;2022-07-23T04:07:37;11.10;;;8.02;;
31770;SDS011;18343;50.152;8.182;2022-07-23T04:10:25;9.68;;;8.50;;
31770;SDS011;18343;50.152;8.182;2022-07-23T04:13:11;11.30;;;9.02;;
31770;SDS011;18343;50.152;8.182;2022-07-23T04:15:56;12.98;;;9.73;;
31770;SDS011;18343;50.152;8.182;2022-07-23T04:18:42;14.95;;;9.75;;
31770;SDS011;18343;50.152;8.182;2022-07-23T04:21:28;12.32;;;9.85;;
31770;SDS011;18343;50.152;8.182;2022-07-23T04:24:13;13.20;;;10.80;;
31770;SDS011;18343;50.152;8.182;2022-07-23T04:27:01;11.52;;;9.45;;
31770;SDS011;18343;50.152;8.182;2022-07-23T04:29:47;12.30;;;9.95;;
31770;SDS011;18343;50.152;8.182;2022-07-23T04:32:33;12.45;;;10.13;;
31770;SDS011;18343;50.152;8.182;2022-07-23T04:35:18;14.98;;;10.73;;
31770;SDS011;18343;50.152;8.182;2022-07-23T04:38:05;12.18;;;9.95;;
31770;SDS011;18343;50.152;8.182;2022-07-23T04:40:51;12.77;;;10.25;;
31770;SDS011;18343;50.152;8.182;2022-07-23T04:43:37;12.90;;;10.85;;
31770;SDS011;18343;50.152;8.182;2022-07-23T04:46:23;15.98;;;11.38;;
31770;SDS011;18343;50.152;8.182;2022-07-23T04:49:09;12.45;;;11.02;;
31770;SDS011;18343;50.152;8.182;2022-07-23T04:51:54;11.98;;;10.77;;
31770;SDS011;18343;50.152;8.182;2022-07-23T04:54:40;12.65;;;10.80;;
31770;SDS011;18343;50.152;8.182;2022-07-23T04:57:25;17.05;;;11.57;;
31770;SDS011;18343;50.152;8.182;2022-07-23T05:00:13;12.23;;;10.93;;
31770;SDS011;18343;50.152;8.182;2022-07-23T05:03:00;17.40;;;11.85;;
31770;SDS011;18343;50.152;8.182;2022-07-23T05:05:45;14.10;;;11.25;;
31770;SDS011;18343;50.152;8.182;2022-07-23T05:08:31;15.18;;;10.63;;
31770;SDS011;18343;50.152;8.182;2022-07-23T05:11:17;15.80;;;10.82;;
31770;SDS011;18343;50.152;8.182;2022-07-23T05:14:03;15.10;;;10.50;;
31770;SDS011;18343;50.152;8.182;2022-07-23T05:16:50;17.15;;;11.30;;
31770;SDS011;18343;50.152;8.182;2022-07-23T05:19:36;13.35;;;11.68;;
31770;SDS011;18343;50.152;8.182;2022-07-23T05:22:21;15.40;;;10.95;;
31770;SDS011;18343;50.152;8.182;2022-07-23T05:25:07;11.98;;;10.68;;
31770;SDS011;18343;50.152;8.182;2022-07-23T05:27:55;14.77;;;10.60;;
31770;SDS011;18343;50.152;8.182;2022-07-23T05:30:40;12.75;;;10.32;;
31770;SDS011;18343;50.152;8.182;2022-07-23T05:33:28;12.32;;;10.85;;
31770;SDS011;18343;50.152;8.182;2022-07-23T05:36:13;15.90;;;11.23;;
31770;SDS011;18343;50.152;8.182;2022-07-23T05:38:59;13.02;;;11.10;;
31770;SDS011;18343;50.152;8.182;2022-07-23T05:41:45;14.07;;;10.93;;
31770;SDS011;18343;50.152;8.182;2022-07-23T05:44:31;12.45;;;10.35;;
31770;SDS011;18343;50.152;8.182;2022-07-23T05:47:17;13.55;;;10.82;;
31770;SDS011;18343;50.152;8.182;2022-07-23T05:50:04;14.10;;;9.95;;
31770;SDS011;18343;50.152;8.182;2022-07-23T05:52:51;13.38;;;11.18;;
31770;SDS011;18343;50.152;8.182;2022-07-23T05:55:37;13.73;;;10.05;;
31770;SDS011;18343;50.152;8.182;2022-07-23T05:58:23;13.18;;;10.80;;
31770;SDS011;18343;50.152;8.182;2022-07-23T06:01:09;13.00;;;10.50;;
31770;SDS011;18343;50.152;8.182;2022-07-23T06:03:55;13.88;;;11.02;;
31770;SDS011;18343;50.152;8.182;2022-07-23T06:06:42;15.15;;;11.30;;
31770;SDS011;18343;50.152;8.182;2022-07-23T06:09:27;11.07;;;9.68;;
31770;SDS011;18343;50.152;8.182;2022-07-23T06:12:13;16.70;;;9.95;;
31770;SDS011;18343;50.152;8.182;2022-07-23T06:14:59;14.43;;;10.35;;
31770;SDS011;18343;50.152;8.182;2022-07-23T06:17:45;14.02;;;9.63;;
31770;SDS011;18343;50.152;8.182;2022-07-23T06:20:30;11.65;;;9.60;;
31770;SDS011;18343;50.152;8.182;2022-07-23T06:23:17;11.82;;;9.38;;
31770;SDS011;18343;50.152;8.182;2022-07-23T06:26:03;11.02;;;8.80;;
31770;SDS011;18343;50.152;8.182;2022-07-23T06:28:49;10.35;;;8.73;;
31770;SDS011;18343;50.152;8.182;2022-07-23T06:31:35;10.95;;;8.30;;
31770;SDS011;18343;50.152;8.182;2022-07-23T06:34:21;13.65;;;8.23;;
31770;SDS011;18343;50.152;8.182;2022-07-23T06:37:07;12.63;;;8.45;;
31770;SDS011;18343;50.152;8.182;2022-07-23T06:39:54;11.00;;;8.10;;
31770;SDS011;18343;50.152;8.182;2022-07-23T06:42:40;12.38;;;8.25;;
31770;SDS011;18343;50.152;8.182;2022-07-23T06:45:26;10.85;;;7.53;;
31770;SDS011;18343;50.152;8.182;2022-07-23T06:48:12;11.68;;;8.38;;
31770;SDS011;18343;50.152;8.182;2022-07-23T06:50:58;10.25;;;7.80;;
31770;SDS011;18343;50.152;8.182;2022-07-23T06:53:43;8.35;;;6.93;;
31770;SDS011;18343;50.152;8.182;2022-07-23T06:56:31;13.45;;;7.90;;
31770;SDS011;18343;50.152;8.182;2022-07-23T06:59:17;8.70;;;7.10;;
31770;SDS011;18343;50.152;8.182;2022-07-23T07:02:02;17.55;;;7.63;;
31770;SDS011;18343;50.152;8.182;2022-07-23T07:04:48;9.07;;;6.47;;
31770;SDS011;18343;50.152;8.182;2022-07-23T07:07:34;9.35;;;5.85;;
31770;SDS011;18343;50.152;8.182;2022-07-23T07:10:20;10.90;;;7.05;;
31770;SDS011;18343;50.152;8.182;2022-07-23T07:13:08;7.57;;;6.00;;
31770;SDS011;18343;50.152;8.182;2022-07-23T07:15:53;6.30;;;5.65;;
31770;SDS011;18343;50.152;8.182;2022-07-23T07:18:39;8.15;;;5.63;;
31770;SDS011;18343;50.152;8.182;2022-07-23T07:21:25;8.32;;;6.18;;
31770;SDS011;18343;50.152;8.182;2022-07-23T07:24:10;6.90;;;5.55;;
31770;SDS011;18343;50.152;8.182;2022-07-23T07:26:56;7.72;;;5.30;;
31770;SDS011;18343;50.152;8.182;2022-07-23T07:29:43;10.32;;;6.32;;
31770;SDS011;18343;50.152;8.182;2022-07-23T07:32:29;10.10;;;6.20;;
31770;SDS011;18343;50.152;8.182;2022-07-23T07:35:16;6.78;;;4.80;;
31770;SDS011;18343;50.152;8.182;2022-07-23T07:38:01;8.90;;;6.18;;
31770;SDS011;18343;50.152;8.182;2022-07-23T07:40:47;7.47;;;5.28;;
31770;SDS011;18343;50.152;8.182;2022-07-23T07:43:33;8.73;;;4.93;;
31770;SDS011;18343;50.152;8.182;2022-07-23T07:46:20;5.85;;;5.18;;
31770;SDS011;18343;50.152;8.182;2022-07-23T07:49:07;8.15;;;5.13;;
31770;SDS011;18343;50.152;8.182;2022-07-23T07:51:53;5.90;;;5.07;;
31770;SDS011;18343;50.152;8.182;2022-07-23T07:54:39;6.63;;;5.18;;
31770;SDS011;18343;50.152;8.182;2022-07-23T07:57:26;6.15;;;5.45;;
31770;SDS011;18343;50.152;8.182;2022-07-23T08:00:12;9.27;;;6.20;;
31770;SDS011;18343;50.152;8.182;2022-07-23T08:02:59;9.50;;;5.10;;
31770;SDS011;18343;50.152;8.182;2022-07-23T08:05:45;6.43;;;5.20;;
31770;SDS011;18343;50.152;8.182;2022-07-23T08:08:31;5.70;;;5.10;;
31770;SDS011;18343;50.152;8.182;2022-07-23T08:11:17;11.98;;;5.60;;
31770;SDS011;18343;50.152;8.182;2022-07-23T08:14:02;7.38;;;5.10;;
31770;SDS011;18343;50.152;8.182;2022-07-23T08:16:48;8.43;;;5.40;;
31770;SDS011;18343;50.152;8.182;2022-07-23T08:19:35;6.32;;;5.65;;
31770;SDS011;18343;50.152;8.182;2022-07-23T08:22:21;8.60;;;5.90;;
31770;SDS011;18343;50.152;8.182;2022-07-23T08:25:08;8.25;;;5.80;;
31770;SDS011;18343;50.152;8.182;2022-07-23T08:27:54;8.77;;;5.70;;
31770;SDS011;18343;50.152;8.182;2022-07-23T08:30:42;6.45;;;5.25;;
31770;SDS011;18343;50.152;8.182;2022-07-23T08:33:29;7.90;;;6.00;;
31770;SDS011;18343;50.152;8.182;2022-07-23T08:36:16;10.30;;;5.70;;
31770;SDS011;18343;50.152;8.182;2022-07-23T08:39:02;11.65;;;5.80;;
31770;SDS011;18343;50.152;8.182;2022-07-23T08:41:48;11.43;;;5.70;;
31770;SDS011;18343;50.152;8.182;2022-07-23T08:44:34;9.38;;;6.50;;
31770;SDS011;18343;50.152;8.182;2022-07-23T08:47:21;11.48;;;7.22;;
31770;SDS011;18343;50.152;8.182;2022-07-23T08:50:07;12.93;;;6.75;;
31770;SDS011;18343;50.152;8.182;2022-07-23T08:52:56;7.07;;;6.20;;
31770;SDS011;18343;50.152;8.182;2022-07-23T08:55:43;10.40;;;6.32;;
31770;SDS011;18343;50.152;8.182;2022-07-23T08:58:30;8.70;;;7.03;;
31770;SDS011;18343;50.152;8.182;2022-07-23T09:01:16;9.20;;;6.43;;
31770;SDS011;18343;50.152;8.182;2022-07-23T09:04:02;11.45;;;6.45;;
31770;SDS011;18343;50.152;8.182;2022-07-23T09:06:48;10.77;;;5.78;;
31770;SDS011;18343;50.152;8.182;2022-07-23T09:09:35;7.97;;;6.05;;
31770;SDS011;18343;50.152;8.182;2022-07-23T09:12:21;9.02;;;6.40;;
31770;SDS011;18343;50.152;8.182;2022-07-23T09:15:11;7.40;;;6.05;;
31770;SDS011;18343;50.152;8.182;2022-07-23T09:17:57;9.27;;;5.70;;
31770;SDS011;18343;50.152;8.182;2022-07-23T09:20:43;9.55;;;6.25;;
31770;SDS011;18343;50.152;8.182;2022-07-23T09:23:36;7.35;;;5.60;;
31770;SDS011;18343;50.152;8.182;2022-07-23T09:26:26;9.45;;;6.28;;
31770;SDS011;18343;50.152;8.182;2022-07-23T09:29:19;8.27;;;5.40;;
31770;SDS011;18343;50.152;8.182;2022-07-23T09:32:06;7.43;;;5.93;;
31770;SDS011;18343;50.152;8.182;2022-07-23T09:34:59;6.55;;;5.85;;
31770;SDS011;18343;50.152;8.182;2022-07-23T09:37:45;11.73;;;5.60;;
31770;SDS011;18343;50.152;8.182;2022-07-23T09:40:47;9.20;;;5.60;;
31770;SDS011;18343;50.152;8.182;2022-07-23T09:43:58;7.55;;;5.90;;
31770;SDS011;18343;50.152;8.182;2022-07-23T09:46:59;6.93;;;5.95;;
31770;SDS011;18343;50.152;8.182;2022-07-23T09:49:57;9.18;;;6.55;;
31770;SDS011;18343;50.152;8.182;2022-07-23T09:52:46;8.05;;;5.80;;
31770;SDS011;18343;50.152;8.182;2022-07-23T09:55:34;8.82;;;5.57;;
31770;SDS011;18343;50.152;8.182;2022-07-23T09:58:22;7.63;;;5.32;;
31770;SDS011;18343;50.152;8.182;2022-07-23T10:01:11;5.70;;;5.03;;
31770;SDS011;18343;50.152;8.182;2022-07-23T10:03:59;8.43;;;5.85;;
31770;SDS011;18343;50.152;8.182;2022-07-23T10:06:46;10.00;;;6.13;;
31770;SDS011;18343;50.152;8.182;2022-07-23T10:09:33;6.40;;;5.68;;
31770;SDS011;18343;50.152;8.182;2022-07-23T10:12:20;7.97;;;5.47;;
31770;SDS011;18343;50.152;8.182;2022-07-23T10:15:25;8.57;;;5.57;;
31770;SDS011;18343;50.152;8.182;2022-07-23T10:18:12;6.43;;;5.60;;
31770;SDS011;18343;50.152;8.182;2022-07-23T10:20:58;6.10;;;5.32;;
31770;SDS011;18343;50.152;8.182;2022-07-23T10:23:57;8.00;;;4.95;;
31770;SDS011;18343;50.152;8.182;2022-07-23T10:26:58;9.77;;;5.60;;
31770;SDS011;18343;50.152;8.182;2022-07-23T10:29:58;6.85;;;5.35;;
31770;SDS011;18343;50.152;8.182;2022-07-23T10:32:53;6.82;;;5.80;;
31770;SDS011;18343;50.152;8.182;2022-07-23T10:35:57;7.18;;;5.70;;
31770;SDS011;18343;50.152;8.182;2022-07-23T10:38:53;8.80;;;5.60;;
31770;SDS011;18343;50.152;8.182;2022-07-23T10:41:44;9.18;;;5.88;;
31770;SDS011;18343;50.152;8.182;2022-07-23T10:44:32;8.13;;;6.32;;
31770;SDS011;18343;50.152;8.182;2022-07-23T10:47:25;7.53;;;5.90;;
31770;SDS011;18343;50.152;8.182;2022-07-23T10:50:26;8.73;;;6.32;;
31770;SDS011;18343;50.152;8.182;2022-07-23T10:53:19;6.53;;;5.65;;
31770;SDS011;18343;50.152;8.182;2022-07-23T10:56:05;6.93;;;5.40;;
31770;SDS011;18343;50.152;8.182;2022-07-23T10:58:51;7.43;;;6.40;;
31770;SDS011;18343;50.152;8.182;2022-07-23T11:01:37;6.72;;;5.72;;
31770;SDS011;18343;50.152;8.182;2022-07-23T11:07:34;10.13;;;6.40;;
31770;SDS011;18343;50.152;8.182;2022-07-23T11:10:32;7.50;;;6.75;;
31770;SDS011;18343;50.152;8.182;2022-07-23T11:13:27;11.10;;;6.35;;
31770;SDS011;18343;50.152;8.182;2022-07-23T11:16:22;7.68;;;6.05;;
31770;SDS011;18343;50.152;8.182;2022-07-23T11:19:11;9.02;;;6.53;;
31770;SDS011;18343;50.152;8.182;2022-07-23T11:21:56;8.00;;;5.97;;
31770;SDS011;18343;50.152;8.182;2022-07-23T11:24:50;7.82;;;6.15;;
31770;SDS011;18343;50.152;8.182;2022-07-23T11:27:38;10.57;;;6.55;;
31770;SDS011;18343;50.152;8.182;2022-07-23T11:30:37;8.75;;;6.60;;
31770;SDS011;18343;50.152;8.182;2022-07-23T11:33:26;6.95;;;6.10;;
31770;SDS011;18343;50.152;8.182;2022-07-23T11:36:12;8.23;;;6.07;;
31770;SDS011;18343;50.152;8.182;2022-07-23T11:38:57;7.63;;;6.93;;
31770;SDS011;18343;50.152;8.182;2022-07-23T11:41:45;11.00;;;6.80;;
31770;SDS011;18343;50.152;8.182;2022-07-23T11:44:33;7.85;;;6.20;;
31770;SDS011;18343;50.152;8.182;2022-07-23T11:47:23;10.00;;;6.50;;
31770;SDS011;18343;50.152;8.182;2022-07-23T11:50:11;9.43;;;6.80;;
31770;SDS011;18343;50.152;8.182;2022-07-23T11:52:56;9.02;;;6.07;;
31770;SDS011;18343;50.152;8.182;2022-07-23T11:55:43;8.80;;;7.18;;
31770;SDS011;18343;50.152;8.182;2022-07-23T11:58:28;9.35;;;6.78;;
31770;SDS011;18343;50.152;8.182;2022-07-23T12:01:16;12.88;;;7.05;;
31770;SDS011;18343;50.152;8.182;2022-07-23T12:04:02;8.65;;;6.53;;
31770;SDS011;18343;50.152;8.182;2022-07-23T12:06:48;10.90;;;6.05;;
31770;SDS011;18343;50.152;8.182;2022-07-23T12:09:33;10.13;;;7.22;;
31770;SDS011;18343;50.152;8.182;2022-07-23T12:12:19;9.32;;;6.95;;
31770;SDS011;18343;50.152;8.182;2022-07-23T12:15:06;8.98;;;7.15;;
31770;SDS011;18343;50.152;8.182;2022-07-23T12:17:55;10.50;;;7.10;;
31770;SDS011;18343;50.152;8.182;2022-07-23T12:20:41;8.70;;;6.50;;
31770;SDS011;18343;50.152;8.182;2022-07-23T12:23:30;11.43;;;7.10;;
31770;SDS011;18343;50.152;8.182;2022-07-23T12:26:16;10.77;;;6.80;;
31770;SDS011;18343;50.152;8.182;2022-07-23T12:29:02;7.72;;;6.38;;
31770;SDS011;18343;50.152;8.182;2022-07-23T12:31:48;11.93;;;6.57;;
31770;SDS011;18343;50.152;8.182;2022-07-23T12:34:35;7.93;;;6.15;;
31770;SDS011;18343;50.152;8.182;2022-07-23T12:37:25;9.70;;;7.05;;
31770;SDS011;18343;50.152;8.182;2022-07-23T12:40:24;7.10;;;6.30;;
31770;SDS011;18343;50.152;8.182;2022-07-23T12:43:18;9.27;;;6.47;;
31770;SDS011;18343;50.152;8.182;2022-07-23T12:46:06;9.80;;;6.82;;
31770;SDS011;18343;50.152;8.182;2022-07-23T12:48:55;8.13;;;6.22;;
31770;SDS011;18343;50.152;8.182;2022-07-23T12:51:42;8.63;;;6.25;;
31770;SDS011;18343;50.152;8.182;2022-07-23T12:54:28;10.00;;;6.65;;
31770;SDS011;18343;50.152;8.182;2022-07-23T12:57:14;7.03;;;6.00;;
31770;SDS011;18343;50.152;8.182;2022-07-23T13:00:07;11.00;;;6.30;;
31770;SDS011;18343;50.152;8.182;2022-07-23T13:02:44;11.15;;;6.80;;
31770;SDS011;18343;50.152;8.182;2022-07-23T13:05:12;8.18;;;6.70;;
31770;SDS011;18343;50.152;8.182;2022-07-23T13:07:40;14.95;;;6.63;;
31770;SDS011;18343;50.152;8.182;2022-07-23T13:10:08;8.43;;;6.80;;
31770;SDS011;18343;50.152;8.182;2022-07-23T13:12:37;9.07;;;6.28;;
31770;SDS011;18343;50.152;8.182;2022-07-23T13:15:05;7.68;;;6.30;;
31770;SDS011;18343;50.152;8.182;2022-07-23T13:17:33;10.48;;;7.47;;
31770;SDS011;18343;50.152;8.182;2022-07-23T13:20:00;9.23;;;6.03;;
31770;SDS011;18343;50.152;8.182;2022-07-23T13:22:28;8.93;;;5.70;;
31770;SDS011;18343;50.152;8.182;2022-07-23T13:24:56;7.20;;;6.47;;
31770;SDS011;18343;50.152;8.182;2022-07-23T13:27:24;7.03;;;6.32;;
31770;SDS011;18343;50.152;8.182;2022-07-23T13:29:51;9.00;;;6.13;;
31770;SDS011;18343;50.152;8.182;2022-07-23T13:32:18;9.20;;;6.25;;
31770;SDS011;18343;50.152;8.182;2022-07-23T13:34:45;9.25;;;6.53;;
31770;SDS011;18343;50.152;8.182;2022-07-23T13:37:12;8.38;;;6.43;;
31770;SDS011;18343;50.152;8.182;2022-07-23T13:39:39;7.80;;;6.22;;
31770;SDS011;18343;50.152;8.182;2022-07-23T13:42:08;6.63;;;5.93;;
31770;SDS011;18343;50.152;8.182;2022-07-23T13:44:35;8.15;;;7.25;;
31770;SDS011;18343;50.152;8.182;2022-07-23T13:47:02;8.77;;;5.75;;
31770;SDS011;18343;50.152;8.182;2022-07-23T13:49:30;10.95;;;6.45;;
31770;SDS011;18343;50.152;8.182;2022-07-23T13:51:57;7.65;;;6.55;;
31770;SDS011;18343;50.152;8.182;2022-07-23T13:54:24;11.55;;;6.13;;
31770;SDS011;18343;50.152;8.182;2022-07-23T13:56:51;9.63;;;6.28;;
31770;SDS011;18343;50.152;8.182;2022-07-23T13:59:20;10.05;;;5.60;;
31770;SDS011;18343;50.152;8.182;2022-07-23T14:01:47;7.50;;;5.35;;
31770;SDS011;18343;50.152;8.182;2022-07-23T14:04:14;9.73;;;6.03;;
31770;SDS011;18343;50.152;8.182;2022-07-23T14:06:41;11.25;;;5.85;;
31770;SDS011;18343;50.152;8.182;2022-07-23T14:09:08;8.32;;;5.40;;
31770;SDS011;18343;50.152;8.182;2022-07-23T14:11:36;7.38;;;5.75;;
31770;SDS011;18343;50.152;8.182;2022-07-23T14:14:04;5.82;;;4.90;;
31770;SDS011;18343;50.152;8.182;2022-07-23T14:16:32;6.32;;;4.53;;
31770;SDS011;18343;50.152;8.182;2022-07-23T14:19:00;7.05;;;5.10;;
31770;SDS011;18343;50.152;8.182;2022-07-23T14:21:27;6.30;;;5.20;;
31770;SDS011;18343;50.152;8.182;2022-07-23T14:23:54;5.32;;;4.75;;
31770;SDS011;18343;50.152;8.182;2022-07-23T14:26:21;7.68;;;4.85;;
31770;SDS011;18343;50.152;8.182;2022-07-23T14:28:48;8.68;;;4.85;;
31770;SDS011;18343;50.152;8.182;2022-07-23T14:31:16;6.90;;;5.10;;
31770;SDS011;18343;50.152;8.182;2022-07-23T14:33:44;6.13;;;5.18;;
31770;SDS011;18343;50.152;8.182;2022-07-23T14:36:12;6.30;;;5.03;;
31770;SDS011;18343;50.152;8.182;2022-07-23T14:38:39;5.85;;;4.97;;
31770;SDS011;18343;50.152;8.182;2022-07-23T14:41:06;9.70;;;4.90;;
31770;SDS011;18343;50.152;8.182;2022-07-23T14:43:34;7.47;;;4.75;;
31770;SDS011;18343;50.152;8.182;2022-07-23T14:46:02;5.88;;;4.25;;
31770;SDS011;18343;50.152;8.182;2022-07-23T14:48:29;6.85;;;4.57;;
31770;SDS011;18343;50.152;8.182;2022-07-23T14:50:57;5.28;;;4.78;;
31770;SDS011;18343;50.152;8.182;2022-07-23T14:53:25;7.38;;;4.43;;
31770;SDS011;18343;50.152;8.182;2022-07-23T14:55:52;5.60;;;4.10;;
31770;SDS011;18343;50.152;8.182;2022-07-23T14:58:20;13.15;;;4.63;;
31770;SDS011;18343;50.152;8.182;2022-07-23T15:00:48;5.60;;;4.50;;
31770;SDS011;18343;50.152;8.182;2022-07-23T15:03:15;4.80;;;4.03;;
31770;SDS011;18343;50.152;8.182;2022-07-23T15:05:43;5.68;;;4.22;;
31770;SDS011;18343;50.152;8.182;2022-07-23T15:08:11;6.60;;;4.38;;
31770;SDS011;18343;50.152;8.182;2022-07-23T15:10:38;5.40;;;4.10;;
31770;SDS011;18343;50.152;8.182;2022-07-23T15:13:05;8.50;;;4.30;;
31770;SDS011;18343;50.152;8.182;2022-07-23T15:15:33;6.03;;;4.20;;
31770;SDS011;18343;50.152;8.182;2022-07-23T15:18:00;5.00;;;3.97;;
31770;SDS011;18343;50.152;8.182;2022-07-23T15:20:27;5.13;;;3.92;;
31770;SDS011;18343;50.152;8.182;2022-07-23T15:22:54;8.00;;;4.75;;
31770;SDS011;18343;50.152;8.182;2022-07-23T15:25:24;6.93;;;4.75;;
31770;SDS011;18343;50.152;8.182;2022-07-23T15:27:51;8.38;;;4.60;;
31770;SDS011;18343;50.152;8.182;2022-07-23T15:30:18;8.70;;;4.55;;
31770;SDS011;18343;50.152;8.182;2022-07-23T15:32:45;11.93;;;4.80;;
31770;SDS011;18343;50.152;8.182;2022-07-23T15:35:12;7.45;;;4.60;;
31770;SDS011;18343;50.152;8.182;2022-07-23T15:37:39;4.70;;;3.80;;
31770;SDS011;18343;50.152;8.182;2022-07-23T15:40:08;6.18;;;4.40;;
31770;SDS011;18343;50.152;8.182;2022-07-23T15:42:37;7.15;;;4.13;;
31770;SDS011;18343;50.152;8.182;2022-07-23T15:45:05;5.85;;;3.90;;
31770;SDS011;18343;50.152;8.182;2022-07-23T15:47:33;4.90;;;3.90;;
31770;SDS011;18343;50.152;8.182;2022-07-23T15:50:00;8.38;;;4.10;;
31770;SDS011;18343;50.152;8.182;2022-07-23T15:52:28;11.18;;;4.82;;
31770;SDS011;18343;50.152;8.182;2022-07-23T15:54:55;5.45;;;4.20;;
31770;SDS011;18343;50.152;8.182;2022-07-23T15:57:22;5.82;;;4.05;;
31770;SDS011;18343;50.152;8.182;2022-07-23T15:59:51;6.85;;;4.40;;
31770;SDS011;18343;50.152;8.182;2022-07-23T16:02:21;6.15;;;4.15;;
31770;SDS011;18343;50.152;8.182;2022-07-23T16:04:49;4.75;;;3.83;;
31770;SDS011;18343;50.152;8.182;2022-07-23T16:07:17;5.68;;;4.18;;
31770;SDS011;18343;50.152;8.182;2022-07-23T16:09:45;6.65;;;4.53;;
31770;SDS011;18343;50.152;8.182;2022-07-23T16:12:12;9.68;;;4.70;;
31770;SDS011;18343;50.152;8.182;2022-07-23T16:14:39;5.63;;;4.25;;
31770;SDS011;18343;50.152;8.182;2022-07-23T16:17:08;5.50;;;3.90;;